createdAt,value
2023-04-08T00:00:39.196Z,18.67
2023-04-08T00:03:42.282Z,18.92
2023-04-08T00:06:45.227Z,18.20
2023-04-08T00:09:47.975Z,17.30
2023-04-08T00:12:51.305Z,16.50
2023-04-08T00:15:54.101Z,16.42
2023-04-08T00:18:57.328Z,17.63
2023-04-08T00:22:00.313Z,15.80
2023-04-08T00:25:03.146Z,17.50
2023-04-08T00:28:05.950Z,17.37
2023-04-08T00:31:09.808Z,18.00
2023-04-08T00:34:12.617Z,16.77
2023-04-08T00:37:15.644Z,17.25
2023-04-08T00:40:18.503Z,17.13
2023-04-08T00:43:21.414Z,15.23
2023-04-08T00:46:24.266Z,16.02
2023-04-08T00:49:27.866Z,15.68
2023-04-08T00:52:30.717Z,16.45
2023-04-08T00:55:33.605Z,17.05
2023-04-08T00:58:36.627Z,15.77
2023-04-08T01:01:51.220Z,14.88
2023-04-08T01:05:15.860Z,15.38
2023-04-08T01:08:19.093Z,15.95
2023-04-08T01:11:22.471Z,16.40
2023-04-08T01:14:28.968Z,14.77
2023-04-08T01:17:33.124Z,14.68
2023-04-08T01:20:36.552Z,15.43
2023-04-08T01:24:17.701Z,16.23
2023-04-08T01:27:21.327Z,14.88
2023-04-08T01:30:26.218Z,15.63
2023-04-08T01:33:30.837Z,14.70
2023-04-08T01:36:36.202Z,16.55
2023-04-08T01:39:41.709Z,15.77
2023-04-08T01:42:47.810Z,15.57
2023-04-08T01:45:54.624Z,15.00
2023-04-08T01:48:59.163Z,14.98
2023-04-08T01:52:03.808Z,14.07
2023-04-08T01:55:06.922Z,15.65
2023-04-08T01:58:17.344Z,15.82
2023-04-08T02:01:23.112Z,13.83
2023-04-08T02:04:26.176Z,15.07
2023-04-08T02:07:28.946Z,16.70
2023-04-08T02:10:33.680Z,16.15
2023-04-08T02:13:36.793Z,15.90
2023-04-08T02:17:02.666Z,16.50
2023-04-08T02:20:10.721Z,16.48
2023-04-08T02:23:21.377Z,15.43
2023-04-08T02:26:25.133Z,16.40
2023-04-08T02:29:31.715Z,16.40
2023-04-08T02:32:35.599Z,16.13
2023-04-08T02:35:40.717Z,15.82
2023-04-08T02:38:51.353Z,16.73
2023-04-08T02:41:54.278Z,14.98
2023-04-08T02:44:58.092Z,16.70
2023-04-08T02:48:01.694Z,17.27
2023-04-08T02:51:04.724Z,16.83
2023-04-08T02:54:07.624Z,18.15
2023-04-08T02:57:10.402Z,16.60
2023-04-08T03:00:16.509Z,16.42
2023-04-08T03:03:20.673Z,16.43
2023-04-08T03:06:27.104Z,16.27
2023-04-08T03:09:29.839Z,17.40
2023-04-08T03:12:33.231Z,16.60
2023-04-08T03:15:36.169Z,17.55
2023-04-08T03:18:38.990Z,15.50
2023-04-08T03:21:41.892Z,15.43
2023-04-08T03:24:44.682Z,15.82
2023-04-08T03:27:47.721Z,14.82
2023-04-08T03:30:50.603Z,16.60
2023-04-08T03:33:53.259Z,16.27
2023-04-08T03:36:56.266Z,16.35
2023-04-08T03:39:59.066Z,16.02
2023-04-08T03:43:01.962Z,15.68
2023-04-08T03:46:04.743Z,15.68
2023-04-08T03:49:07.683Z,15.60
2023-04-08T03:52:10.496Z,15.52
2023-04-08T03:55:13.258Z,16.42
2023-04-08T03:58:16.006Z,15.38
2023-04-08T04:01:18.759Z,15.75
2023-04-08T04:04:21.976Z,14.30
2023-04-08T04:07:24.920Z,15.15
2023-04-08T04:10:27.791Z,16.65
2023-04-08T04:13:30.639Z,16.10
2023-04-08T04:16:33.636Z,16.17
2023-04-08T04:19:36.941Z,17.87
2023-04-08T04:22:39.706Z,16.85
2023-04-08T04:25:42.754Z,16.00
2023-04-08T04:28:45.736Z,16.58
2023-04-08T04:31:48.507Z,16.17
2023-04-08T04:34:51.285Z,15.83
2023-04-08T04:37:54.068Z,16.20
2023-04-08T04:40:58.007Z,14.40
2023-04-08T04:44:01.538Z,15.60
2023-04-08T04:47:04.317Z,16.63
2023-04-08T04:50:07.697Z,14.17
2023-04-08T04:53:10.500Z,15.40
2023-04-08T04:56:13.261Z,15.27
2023-04-08T04:59:16.098Z,14.40
2023-04-08T05:02:18.968Z,16.55
2023-04-08T05:05:21.858Z,15.97
2023-04-08T05:08:26.662Z,17.10
2023-04-08T05:11:31.046Z,17.70
2023-04-08T05:14:33.819Z,18.50
2023-04-08T05:17:36.644Z,18.02
2023-04-08T05:20:40.091Z,16.93
2023-04-08T05:23:42.836Z,17.27
2023-04-08T05:26:45.794Z,17.85
2023-04-08T05:29:48.903Z,17.20
2023-04-08T05:32:51.811Z,16.20
2023-04-08T05:35:54.643Z,16.33
2023-04-08T05:38:57.761Z,14.98
2023-04-08T05:42:00.577Z,16.30
2023-04-08T05:45:03.502Z,17.52
2023-04-08T05:48:06.733Z,17.70
2023-04-08T05:51:14.302Z,17.10
2023-04-08T05:54:17.086Z,17.60
2023-04-08T05:57:19.833Z,16.55
2023-04-08T06:00:24.380Z,17.13
2023-04-08T06:03:27.256Z,16.15
2023-04-08T06:06:30.472Z,16.40
2023-04-08T06:09:36.675Z,18.25
2023-04-08T06:12:39.660Z,16.90
2023-04-08T06:15:42.434Z,19.15
2023-04-08T06:18:45.152Z,16.88
2023-04-08T06:21:48.056Z,18.00
2023-04-08T06:24:50.775Z,16.40
2023-04-08T06:27:53.488Z,16.10
2023-04-08T06:30:56.560Z,16.30
2023-04-08T06:33:59.459Z,16.90
2023-04-08T06:37:02.216Z,16.37
2023-04-08T06:40:07.060Z,16.00
2023-04-08T06:43:10.794Z,15.57
2023-04-08T06:46:16.299Z,16.98
2023-04-08T06:49:19.072Z,24.67
2023-04-08T06:52:21.864Z,20.43
2023-04-08T06:55:24.621Z,18.10
2023-04-08T06:58:27.572Z,16.88
2023-04-08T07:01:31.197Z,15.52
2023-04-08T07:04:34.141Z,17.75
2023-04-08T07:07:37.619Z,16.87
2023-04-08T07:10:42.131Z,16.65
2023-04-08T07:13:44.830Z,16.98
2023-04-08T07:16:47.623Z,18.63
2023-04-08T07:19:50.581Z,34.22
2023-04-08T07:22:53.597Z,21.33
2023-04-08T07:25:56.390Z,20.60
2023-04-08T07:28:59.226Z,18.17
2023-04-08T07:32:02.018Z,17.65
2023-04-08T07:35:05.133Z,16.85
2023-04-08T07:38:11.598Z,16.60
2023-04-08T07:41:14.505Z,19.08
2023-04-08T07:44:17.466Z,17.45
2023-04-08T07:47:20.182Z,15.70
2023-04-08T07:50:23.855Z,15.60
2023-04-08T07:53:27.932Z,14.37
2023-04-08T07:56:30.800Z,16.48
2023-04-08T07:59:33.760Z,16.17
2023-04-08T08:02:36.798Z,18.85
2023-04-08T08:05:40.046Z,20.10
2023-04-08T08:08:42.992Z,23.03
2023-04-08T08:11:45.908Z,18.13
2023-04-08T08:14:48.630Z,15.70
2023-04-08T08:17:51.549Z,15.13
2023-04-08T08:20:55.028Z,16.25
2023-04-08T08:23:59.634Z,14.67
2023-04-08T08:27:04.593Z,16.45
2023-04-08T08:30:08.720Z,15.80
2023-04-08T08:33:15.003Z,15.43
2023-04-08T08:36:18.186Z,17.67
2023-04-08T08:39:21.037Z,16.70
2023-04-08T08:42:25.389Z,17.65
2023-04-08T08:45:28.146Z,17.50
2023-04-08T08:48:32.988Z,15.68
2023-04-08T08:51:36.803Z,15.73
2023-04-08T08:54:39.511Z,15.40
2023-04-08T08:57:42.236Z,15.60
2023-04-08T09:00:45.629Z,15.60
2023-04-08T09:04:07.687Z,15.02
2023-04-08T09:07:13.952Z,14.48
2023-04-08T09:10:28.976Z,13.83
2023-04-08T09:13:37.157Z,13.57
2023-04-08T09:16:43.220Z,13.00
2023-04-08T09:20:09.873Z,13.32
2023-04-08T09:23:14.785Z,13.98
2023-04-08T09:26:25.397Z,12.73
2023-04-08T09:29:31.242Z,12.57
2023-04-08T09:32:55.740Z,12.60
2023-04-08T09:35:58.870Z,11.25
2023-04-08T09:39:01.753Z,12.18
2023-04-08T09:42:09.567Z,11.80
2023-04-08T09:45:13.093Z,11.52
2023-04-08T09:48:24.859Z,11.18
2023-04-08T09:51:33.496Z,10.82
2023-04-08T09:55:08.767Z,12.30
2023-04-08T09:58:27.788Z,11.43
2023-04-08T10:01:44.020Z,11.20
2023-04-08T10:04:52.331Z,12.32
2023-04-08T10:07:57.050Z,11.75
2023-04-08T10:11:01.704Z,11.23
2023-04-08T10:14:04.655Z,11.73
2023-04-08T10:17:32.215Z,10.70
2023-04-08T10:20:37.265Z,10.13
2023-04-08T10:24:06.201Z,10.63
2023-04-08T10:27:43.888Z,10.95
2023-04-08T10:30:56.843Z,9.73
2023-04-08T10:34:17.757Z,9.88
2023-04-08T10:37:20.557Z,10.63
2023-04-08T10:40:23.872Z,11.55
2023-04-08T10:43:33.095Z,10.23
2023-04-08T10:46:41.353Z,9.50
2023-04-08T10:49:44.150Z,10.77
2023-04-08T10:52:54.219Z,10.75
2023-04-08T10:56:15.520Z,9.98
2023-04-08T10:59:28.208Z,9.40
2023-04-08T11:02:34.366Z,8.67
2023-04-08T11:05:39.826Z,9.02
2023-04-08T11:08:44.160Z,9.57
2023-04-08T11:11:47.392Z,10.98
2023-04-08T11:14:52.761Z,9.13
2023-04-08T11:17:55.658Z,12.40
2023-04-08T11:21:00.214Z,9.85
2023-04-08T11:24:10.120Z,8.48
2023-04-08T11:27:13.224Z,8.30
2023-04-08T11:30:16.296Z,8.60
2023-04-08T11:33:19.320Z,8.63
2023-04-08T11:36:22.530Z,8.98
2023-04-08T11:39:26.587Z,10.45
2023-04-08T11:42:31.372Z,7.95
2023-04-08T11:45:40.020Z,9.15
2023-04-08T11:48:57.696Z,9.57
2023-04-08T11:52:00.687Z,8.65
2023-04-08T11:55:05.067Z,8.88
2023-04-08T11:58:07.866Z,7.95
2023-04-08T12:01:10.706Z,8.70
2023-04-08T12:04:13.777Z,7.67
2023-04-08T12:07:16.548Z,8.57
2023-04-08T12:10:19.469Z,8.18
2023-04-08T12:13:22.162Z,8.57
2023-04-08T12:16:25.034Z,7.85
2023-04-08T12:19:27.814Z,8.23
2023-04-08T12:22:30.479Z,7.93
2023-04-08T12:25:33.275Z,6.85
2023-04-08T12:28:36.444Z,8.05
2023-04-08T12:31:39.487Z,6.85
2023-04-08T12:34:42.624Z,7.43
2023-04-08T12:37:45.858Z,7.45
2023-04-08T12:40:50.191Z,8.23
2023-04-08T12:43:53.096Z,7.00
2023-04-08T12:46:56.046Z,5.93
2023-04-08T12:49:59.012Z,5.67
2023-04-08T12:53:01.851Z,5.13
2023-04-08T12:56:04.865Z,5.65
2023-04-08T12:59:08.183Z,6.50
2023-04-08T13:02:11.148Z,6.38
2023-04-08T13:05:14.267Z,6.93
2023-04-08T13:08:17.745Z,6.53
2023-04-08T13:11:21.582Z,6.32
2023-04-08T13:14:24.310Z,5.78
2023-04-08T13:17:28.146Z,6.50
2023-04-08T13:20:31.017Z,6.00
2023-04-08T13:23:34.263Z,5.95
2023-04-08T13:26:36.937Z,5.05
2023-04-08T13:29:39.836Z,6.00
2023-04-08T13:32:42.670Z,6.90
2023-04-08T13:35:45.772Z,5.73
2023-04-08T13:38:48.857Z,6.05
2023-04-08T13:41:52.523Z,7.15
2023-04-08T13:44:55.233Z,6.28
2023-04-08T13:48:00.244Z,7.38
2023-04-08T13:51:04.138Z,6.90
2023-04-08T13:54:07.139Z,7.85
2023-04-08T13:57:09.840Z,7.60
2023-04-08T14:00:13.050Z,8.18
2023-04-08T14:03:17.925Z,7.57
2023-04-08T14:06:20.609Z,8.27
2023-04-08T14:09:23.957Z,7.22
2023-04-08T14:12:26.737Z,7.20
2023-04-08T14:15:29.436Z,7.60
2023-04-08T14:18:32.589Z,7.28
2023-04-08T14:21:35.551Z,7.60
2023-04-08T14:24:38.270Z,7.65
2023-04-08T14:27:54.749Z,7.65
2023-04-08T14:31:01.748Z,6.57
2023-04-08T14:34:05.173Z,7.05
2023-04-08T14:37:08.015Z,6.20
2023-04-08T14:40:11.272Z,7.82
2023-04-08T14:43:16.053Z,6.15
2023-04-08T14:46:18.827Z,6.13
2023-04-08T14:49:21.614Z,7.07
2023-04-08T14:52:25.046Z,7.83
2023-04-08T14:55:29.964Z,8.00
2023-04-08T14:58:33.194Z,7.78
2023-04-08T15:01:36.130Z,6.57
2023-04-08T15:04:38.886Z,6.57
2023-04-08T15:07:42.019Z,6.43
2023-04-08T15:10:44.802Z,6.13
2023-04-08T15:13:47.657Z,7.07
2023-04-08T15:16:50.361Z,6.18
2023-04-08T15:19:53.097Z,6.85
2023-04-08T15:22:56.489Z,6.13
2023-04-08T15:25:59.245Z,5.40
2023-04-08T15:29:04.318Z,5.32
2023-04-08T15:32:07.265Z,5.63
2023-04-08T15:35:11.025Z,6.00
2023-04-08T15:38:13.755Z,6.20
2023-04-08T15:41:20.152Z,6.47
2023-04-08T15:44:22.908Z,5.72
2023-04-08T15:47:25.937Z,5.78
2023-04-08T15:50:30.254Z,6.38
2023-04-08T15:53:33.014Z,6.67
2023-04-08T15:56:35.750Z,6.75
2023-04-08T15:59:38.454Z,7.53
2023-04-08T16:02:42.326Z,8.10
2023-04-08T16:05:45.236Z,7.72
2023-04-08T16:08:48.746Z,11.47
2023-04-08T16:11:53.246Z,13.70
2023-04-08T16:14:56.224Z,9.45
2023-04-08T16:17:58.967Z,7.90
2023-04-08T16:21:04.817Z,7.13
2023-04-08T16:24:07.555Z,7.90
2023-04-08T16:27:10.822Z,8.18
2023-04-08T16:30:13.899Z,8.05
2023-04-08T16:33:16.778Z,7.13
2023-04-08T16:36:20.374Z,7.05
2023-04-08T16:39:23.122Z,7.70
2023-04-08T16:42:26.139Z,8.20
2023-04-08T16:45:30.095Z,7.57
2023-04-08T16:48:33.112Z,7.10
2023-04-08T16:51:36.046Z,7.18
2023-04-08T16:54:38.791Z,8.77
2023-04-08T16:57:41.541Z,8.27
2023-04-08T17:00:44.864Z,9.98
2023-04-08T17:03:52.449Z,10.45
2023-04-08T17:06:55.714Z,10.18
2023-04-08T17:09:59.010Z,10.07
2023-04-08T17:13:01.779Z,10.23
2023-04-08T17:16:05.736Z,11.05
2023-04-08T17:19:08.475Z,10.82
2023-04-08T17:22:11.489Z,10.98
2023-04-08T17:25:14.199Z,11.93
2023-04-08T17:28:17.090Z,11.93
2023-04-08T17:31:19.921Z,11.40
2023-04-08T17:34:22.809Z,11.75
2023-04-08T17:37:25.553Z,10.40
2023-04-08T17:40:28.449Z,11.00
2023-04-08T17:43:31.288Z,10.38
2023-04-08T17:46:34.110Z,11.98
2023-04-08T17:49:36.940Z,11.07
2023-04-08T17:52:47.971Z,11.88
2023-04-08T17:55:50.691Z,11.93
2023-04-08T17:58:53.385Z,11.75
2023-04-08T18:01:56.455Z,11.85
2023-04-08T18:05:03.006Z,11.88
2023-04-08T18:08:06.001Z,12.93
2023-04-08T18:11:08.881Z,12.50
2023-04-08T18:14:12.728Z,12.25
2023-04-08T18:17:15.650Z,11.57
2023-04-08T18:20:18.698Z,11.48
2023-04-08T18:23:21.536Z,12.32
2023-04-08T18:26:24.355Z,11.67
2023-04-08T18:29:27.355Z,12.07
2023-04-08T18:32:30.271Z,12.95
2023-04-08T18:35:33.083Z,11.18
2023-04-08T18:38:36.743Z,11.68
2023-04-08T18:41:39.594Z,12.53
2023-04-08T18:44:42.962Z,12.48
2023-04-08T18:47:45.797Z,12.13
2023-04-08T18:50:48.982Z,11.80
2023-04-08T18:53:52.723Z,12.98
2023-04-08T18:56:55.827Z,10.97
2023-04-08T18:59:58.634Z,12.13
2023-04-08T19:03:03.594Z,12.68
2023-04-08T19:06:07.983Z,14.35
2023-04-08T19:09:11.113Z,16.17
2023-04-08T19:12:13.950Z,19.00
2023-04-08T19:15:18.562Z,19.70
2023-04-08T19:18:21.707Z,18.35
2023-04-08T19:21:24.589Z,19.10
2023-04-08T19:24:27.395Z,17.92
2023-04-08T19:27:30.784Z,20.27
2023-04-08T19:30:39.306Z,18.55
2023-04-08T19:33:42.286Z,18.48
2023-04-08T19:36:45.127Z,19.75
2023-04-08T19:39:48.003Z,15.73
2023-04-08T19:42:50.905Z,17.57
2023-04-08T19:45:55.123Z,18.00
2023-04-08T19:48:59.043Z,20.33
2023-04-08T19:52:01.922Z,17.98
2023-04-08T19:55:05.653Z,17.02
2023-04-08T19:58:09.076Z,16.03
2023-04-08T20:01:14.320Z,16.27
2023-04-08T20:04:17.200Z,16.63
2023-04-08T20:07:20.095Z,16.33
2023-04-08T20:10:22.921Z,15.48
2023-04-08T20:13:25.738Z,17.03
2023-04-08T20:16:28.493Z,15.82
2023-04-08T20:19:31.399Z,16.55
2023-04-08T20:22:34.390Z,16.02
2023-04-08T20:25:38.736Z,14.52
2023-04-08T20:28:43.476Z,15.07
2023-04-08T20:31:46.462Z,14.23
2023-04-08T20:34:49.956Z,15.45
2023-04-08T20:37:52.740Z,13.55
2023-04-08T20:40:55.784Z,16.05
2023-04-08T20:43:58.613Z,15.10
2023-04-08T20:47:01.625Z,14.20
2023-04-08T20:50:05.800Z,15.50
2023-04-08T20:53:08.552Z,14.60
2023-04-08T20:56:11.464Z,16.70
2023-04-08T20:59:14.293Z,14.90
2023-04-08T21:02:21.164Z,15.68
2023-04-08T21:05:24.465Z,15.60
2023-04-08T21:08:27.221Z,15.48
2023-04-08T21:11:30.033Z,14.10
2023-04-08T21:14:34.763Z,13.37
2023-04-08T21:17:37.547Z,15.15
2023-04-08T21:20:41.194Z,15.55
2023-04-08T21:23:43.972Z,15.20
2023-04-08T21:26:46.873Z,15.43
2023-04-08T21:29:52.830Z,14.10
2023-04-08T21:32:55.573Z,15.20
2023-04-08T21:35:58.390Z,15.45
2023-04-08T21:39:01.519Z,16.42
2023-04-08T21:42:04.414Z,15.23
2023-04-08T21:45:07.798Z,15.20
2023-04-08T21:48:10.749Z,14.68
2023-04-08T21:51:17.046Z,14.20
2023-04-08T21:54:19.978Z,14.23
2023-04-08T21:57:22.756Z,14.88
2023-04-08T22:00:25.992Z,14.90
2023-04-08T22:03:29.506Z,14.35
2023-04-08T22:06:33.051Z,15.30
2023-04-08T22:09:36.124Z,14.50
2023-04-08T22:12:38.871Z,14.73
2023-04-08T22:15:41.603Z,14.03
2023-04-08T22:18:44.303Z,13.68
2023-04-08T22:21:47.453Z,14.20
2023-04-08T22:24:50.199Z,15.90
2023-04-08T22:27:52.978Z,15.55
2023-04-08T22:30:56.038Z,14.67
2023-04-08T22:33:58.789Z,15.77
2023-04-08T22:37:01.496Z,14.20
2023-04-08T22:40:04.696Z,14.45
2023-04-08T22:43:07.461Z,14.75
2023-04-08T22:46:11.059Z,14.27
2023-04-08T22:49:14.403Z,15.15
2023-04-08T22:52:17.716Z,17.33
2023-04-08T22:55:20.510Z,15.55
2023-04-08T22:58:23.340Z,15.95
2023-04-08T23:01:26.085Z,15.60
2023-04-08T23:04:29.090Z,14.48
2023-04-08T23:07:31.910Z,15.43
2023-04-08T23:10:34.983Z,15.70
2023-04-08T23:13:37.748Z,15.40
2023-04-08T23:16:40.571Z,14.83
2023-04-08T23:19:43.972Z,14.77
2023-04-08T23:22:46.784Z,16.00
2023-04-08T23:25:49.849Z,13.40
2023-04-08T23:28:53.253Z,14.77
2023-04-08T23:31:56.248Z,13.70
2023-04-08T23:34:59.584Z,13.52
2023-04-08T23:38:02.372Z,15.30
2023-04-08T23:41:06.282Z,13.95
2023-04-08T23:44:09.113Z,13.90
2023-04-08T23:47:11.856Z,15.07
2023-04-08T23:50:15.069Z,14.60
2023-04-08T23:53:18.282Z,15.63
2023-04-08T23:56:21.681Z,16.40
2023-04-08T23:59:24.389Z,16.45
